sensor_id;sensor_type;location;lat;lon;timestamp;pressure;altitude;pressure_sealevel;temperature;humidity
80118;BME280;69424;48.770;-1.564;2024-02-26T00:00:20;98624.82;;;10.09;87.58
80118;BME280;69424;48.770;-1.564;2024-02-26T00:01:13;98624.48;;;10.08;88.14
80118;BME280;69424;48.770;-1.564;2024-02-26T00:02:02;98625.73;;;10.07;87.96
80118;BME280;69424;48.770;-1.564;2024-02-26T00:02:37;98627.17;;;10.06;87.96
80118;BME280;69424;48.770;-1.564;2024-02-26T00:03:11;98624.38;;;10.05;87.82
80118;BME280;69424;48.770;-1.564;2024-02-26T00:03:46;98625.80;;;10.04;87.67
80118;BME280;69424;48.770;-1.564;2024-02-26T00:04:20;98628.13;;;10.03;87.56
80118;BME280;69424;48.770;-1.564;2024-02-26T00:04:54;98625.86;;;10.01;87.64
80118;BME280;69424;48.770;-1.564;2024-02-26T00:05:27;98628.88;;;10.01;87.38
80118;BME280;69424;48.770;-1.564;2024-02-26T00:06:01;98629.45;;;9.99;87.28
80118;BME280;69424;48.770;-1.564;2024-02-26T00:06:35;98628.41;;;9.98;87.63
80118;BME280;69424;48.770;-1.564;2024-02-26T00:07:10;98628.96;;;9.97;87.75
80118;BME280;69424;48.770;-1.564;2024-02-26T00:07:43;98627.20;;;9.96;87.60
80118;BME280;69424;48.770;-1.564;2024-02-26T00:08:16;98627.25;;;9.95;87.56
80118;BME280;69424;48.770;-1.564;2024-02-26T00:08:49;98630.61;;;9.94;87.87
80118;BME280;69424;48.770;-1.564;2024-02-26T00:09:23;98630.44;;;9.94;87.93
80118;BME280;69424;48.770;-1.564;2024-02-26T00:09:56;98632.05;;;9.93;87.92
80118;BME280;69424;48.770;-1.564;2024-02-26T00:10:29;98632.07;;;9.93;88.03
80118;BME280;69424;48.770;-1.564;2024-02-26T00:11:17;98633.67;;;9.92;88.07
80118;BME280;69424;48.770;-1.564;2024-02-26T00:11:50;98632.45;;;9.90;87.95
80118;BME280;69424;48.770;-1.564;2024-02-26T00:12:26;98633.38;;;9.89;88.05
80118;BME280;69424;48.770;-1.564;2024-02-26T00:12:59;98634.27;;;9.88;88.03
80118;BME280;69424;48.770;-1.564;2024-02-26T00:13:33;98636.23;;;9.88;88.36
80118;BME280;69424;48.770;-1.564;2024-02-26T00:14:06;98636.75;;;9.88;88.80
80118;BME280;69424;48.770;-1.564;2024-02-26T00:14:39;98637.99;;;9.88;88.60
80118;BME280;69424;48.770;-1.564;2024-02-26T00:15:14;98639.76;;;9.87;88.44
80118;BME280;69424;48.770;-1.564;2024-02-26T00:15:47;98637.83;;;9.87;88.61
80118;BME280;69424;48.770;-1.564;2024-02-26T00:16:20;98640.81;;;9.87;88.84
80118;BME280;69424;48.770;-1.564;2024-02-26T00:16:53;98641.52;;;9.88;89.03
80118;BME280;69424;48.770;-1.564;2024-02-26T00:17:26;98640.09;;;9.88;89.36
80118;BME280;69424;48.770;-1.564;2024-02-26T00:18:00;98640.96;;;9.89;89.36
80118;BME280;69424;48.770;-1.564;2024-02-26T00:18:33;98642.91;;;9.89;89.30
80118;BME280;69424;48.770;-1.564;2024-02-26T00:19:07;98642.19;;;9.89;89.62
80118;BME280;69424;48.770;-1.564;2024-02-26T00:19:41;98640.76;;;9.90;89.59
80118;BME280;69424;48.770;-1.564;2024-02-26T00:20:14;98646.40;;;9.91;89.96
80118;BME280;69424;48.770;-1.564;2024-02-26T00:20:48;98644.08;;;9.93;89.95
80118;BME280;69424;48.770;-1.564;2024-02-26T00:21:21;98641.75;;;9.94;89.74
80118;BME280;69424;48.770;-1.564;2024-02-26T00:21:54;98644.90;;;9.95;89.76
80118;BME280;69424;48.770;-1.564;2024-02-26T00:22:28;98646.30;;;9.95;89.84
80118;BME280;69424;48.770;-1.564;2024-02-26T00:23:01;98647.70;;;9.96;89.77
80118;BME280;69424;48.770;-1.564;2024-02-26T00:23:34;98646.46;;;9.96;89.75
80118;BME280;69424;48.770;-1.564;2024-02-26T00:24:07;98647.69;;;9.97;89.81
80118;BME280;69424;48.770;-1.564;2024-02-26T00:24:41;98647.19;;;9.95;89.83
80118;BME280;69424;48.770;-1.564;2024-02-26T00:25:14;98646.13;;;9.95;89.90
80118;BME280;69424;48.770;-1.564;2024-02-26T00:25:47;98645.23;;;9.95;89.97
80118;BME280;69424;48.770;-1.564;2024-02-26T00:26:20;98646.33;;;9.94;89.99
80118;BME280;69424;48.770;-1.564;2024-02-26T00:26:53;98644.39;;;9.94;89.78
80118;BME280;69424;48.770;-1.564;2024-02-26T00:27:27;98645.30;;;9.94;89.82
80118;BME280;69424;48.770;-1.564;2024-02-26T00:28:01;98645.13;;;9.93;89.84
80118;BME280;69424;48.770;-1.564;2024-02-26T00:28:34;98648.30;;;9.93;89.63
80118;BME280;69424;48.770;-1.564;2024-02-26T00:29:07;98645.48;;;9.94;89.74
80118;BME280;69424;48.770;-1.564;2024-02-26T00:29:40;98643.91;;;9.92;89.62
80118;BME280;69424;48.770;-1.564;2024-02-26T00:30:13;98645.86;;;9.91;89.20
80118;BME280;69424;48.770;-1.564;2024-02-26T00:30:47;98646.58;;;9.90;88.98
80118;BME280;69424;48.770;-1.564;2024-02-26T00:31:20;98651.53;;;9.90;89.09
80118;BME280;69424;48.770;-1.564;2024-02-26T00:31:53;98648.19;;;9.89;88.72
80118;BME280;69424;48.770;-1.564;2024-02-26T00:32:26;98649.64;;;9.88;88.54
80118;BME280;69424;48.770;-1.564;2024-02-26T00:32:59;98648.78;;;9.87;88.39
80118;BME280;69424;48.770;-1.564;2024-02-26T00:33:33;98650.92;;;9.85;88.03
80118;BME280;69424;48.770;-1.564;2024-02-26T00:34:06;98650.23;;;9.85;88.16
80118;BME280;69424;48.770;-1.564;2024-02-26T00:34:40;98652.38;;;9.84;88.16
80118;BME280;69424;48.770;-1.564;2024-02-26T00:35:13;98655.02;;;9.84;88.05
80118;BME280;69424;48.770;-1.564;2024-02-26T00:35:47;98651.69;;;9.83;88.05
80118;BME280;69424;48.770;-1.564;2024-02-26T00:36:21;98656.48;;;9.83;87.98
80118;BME280;69424;48.770;-1.564;2024-02-26T00:36:54;98655.59;;;9.82;88.08
80118;BME280;69424;48.770;-1.564;2024-02-26T00:37:27;98656.64;;;9.83;88.08
80118;BME280;69424;48.770;-1.564;2024-02-26T00:38:00;98657.17;;;9.82;88.11
80118;BME280;69424;48.770;-1.564;2024-02-26T00:38:35;98657.70;;;9.82;88.08
80118;BME280;69424;48.770;-1.564;2024-02-26T00:39:08;98662.30;;;9.82;88.24
80118;BME280;69424;48.770;-1.564;2024-02-26T00:39:42;98655.93;;;9.83;88.39
80118;BME280;69424;48.770;-1.564;2024-02-26T00:40:30;98659.07;;;9.85;88.83
80118;BME280;69424;48.770;-1.564;2024-02-26T00:41:13;98658.48;;;9.86;89.27
80118;BME280;69424;48.770;-1.564;2024-02-26T00:41:49;98657.43;;;9.87;89.38
80118;BME280;69424;48.770;-1.564;2024-02-26T00:42:24;98656.52;;;9.87;89.53
80118;BME280;69424;48.770;-1.564;2024-02-26T00:42:57;98660.23;;;9.88;89.88
80118;BME280;69424;48.770;-1.564;2024-02-26T00:43:31;98661.81;;;9.88;89.93
80118;BME280;69424;48.770;-1.564;2024-02-26T00:44:04;98658.63;;;9.89;90.17
80118;BME280;69424;48.770;-1.564;2024-02-26T00:44:37;98661.94;;;9.91;89.90
80118;BME280;69424;48.770;-1.564;2024-02-26T00:45:11;98662.30;;;9.91;89.93
80118;BME280;69424;48.770;-1.564;2024-02-26T00:45:45;98664.23;;;9.91;89.95
80118;BME280;69424;48.770;-1.564;2024-02-26T00:46:20;98662.27;;;9.91;89.96
80118;BME280;69424;48.770;-1.564;2024-02-26T00:46:53;98667.55;;;9.93;89.81
80118;BME280;69424;48.770;-1.564;2024-02-26T00:47:26;98667.52;;;9.94;89.71
80118;BME280;69424;48.770;-1.564;2024-02-26T00:47:59;98668.39;;;9.95;89.48
80118;BME280;69424;48.770;-1.564;2024-02-26T00:48:37;98667.32;;;9.95;89.71
80118;BME280;69424;48.770;-1.564;2024-02-26T00:49:11;98670.67;;;9.95;89.69
80118;BME280;69424;48.770;-1.564;2024-02-26T00:49:44;98670.48;;;9.96;89.83
80118;BME280;69424;48.770;-1.564;2024-02-26T00:50:18;98672.73;;;9.97;89.77
80118;BME280;69424;48.770;-1.564;2024-02-26T00:50:51;98673.43;;;9.98;89.56
80118;BME280;69424;48.770;-1.564;2024-02-26T00:51:24;98672.36;;;9.99;89.37
80118;BME280;69424;48.770;-1.564;2024-02-26T00:51:58;98674.63;;;10.00;89.04
80118;BME280;69424;48.770;-1.564;2024-02-26T00:52:31;98674.09;;;10.01;88.94
80118;BME280;69424;48.770;-1.564;2024-02-26T00:53:04;98673.90;;;10.00;88.63
80118;BME280;69424;48.770;-1.564;2024-02-26T00:53:37;98676.76;;;9.99;88.48
80118;BME280;69424;48.770;-1.564;2024-02-26T00:54:10;98673.59;;;9.99;88.39
80118;BME280;69424;48.770;-1.564;2024-02-26T00:54:43;98677.12;;;9.99;88.30
80118;BME280;69424;48.770;-1.564;2024-02-26T00:55:16;98673.06;;;9.99;88.20
80118;BME280;69424;48.770;-1.564;2024-02-26T00:55:49;98674.34;;;9.97;88.04
80118;BME280;69424;48.770;-1.564;2024-02-26T00:56:23;98675.59;;;9.96;88.06
80118;BME280;69424;48.770;-1.564;2024-02-26T00:56:56;98681.08;;;9.96;88.27
80118;BME280;69424;48.770;-1.564;2024-02-26T00:57:29;98679.32;;;9.95;88.74
80118;BME280;69424;48.770;-1.564;2024-02-26T00:58:02;98679.31;;;9.95;88.78
80118;BME280;69424;48.770;-1.564;2024-02-26T00:58:35;98684.97;;;9.96;89.07
80118;BME280;69424;48.770;-1.564;2024-02-26T00:59:09;98681.05;;;9.97;89.37
80118;BME280;69424;48.770;-1.564;2024-02-26T00:59:42;98685.30;;;9.97;89.42
80118;BME280;69424;48.770;-1.564;2024-02-26T01:00:15;98683.88;;;9.97;89.35
80118;BME280;69424;48.770;-1.564;2024-02-26T01:00:49;98681.41;;;9.97;89.44
80118;BME280;69424;48.770;-1.564;2024-02-26T01:01:22;98688.66;;;9.96;89.27
80118;BME280;69424;48.770;-1.564;2024-02-26T01:01:55;98688.48;;;9.96;89.34
80118;BME280;69424;48.770;-1.564;2024-02-26T01:02:28;98690.08;;;9.96;89.16
80118;BME280;69424;48.770;-1.564;2024-02-26T01:03:02;98693.09;;;9.96;89.14
80118;BME280;69424;48.770;-1.564;2024-02-26T01:03:36;98689.58;;;9.95;89.18
80118;BME280;69424;48.770;-1.564;2024-02-26T01:04:09;98688.36;;;9.94;89.00
80118;BME280;69424;48.770;-1.564;2024-02-26T01:04:43;98692.95;;;9.94;88.79
80118;BME280;69424;48.770;-1.564;2024-02-26T01:05:16;98693.81;;;9.95;88.97
80118;BME280;69424;48.770;-1.564;2024-02-26T01:05:49;98694.50;;;9.95;88.91
80118;BME280;69424;48.770;-1.564;2024-02-26T01:06:22;98695.02;;;9.96;89.17
80118;BME280;69424;48.770;-1.564;2024-02-26T01:06:55;98697.46;;;9.97;89.47
80118;BME280;69424;48.770;-1.564;2024-02-26T01:07:29;98694.11;;;9.98;89.54
80118;BME280;69424;48.770;-1.564;2024-02-26T01:08:06;98696.02;;;9.99;89.66
80118;BME280;69424;48.770;-1.564;2024-02-26T01:08:40;98699.37;;;10.00;89.52
80118;BME280;69424;48.770;-1.564;2024-02-26T01:09:13;98695.25;;;10.01;89.58
80118;BME280;69424;48.770;-1.564;2024-02-26T01:09:46;98701.08;;;10.02;89.67
80118;BME280;69424;48.770;-1.564;2024-02-26T01:10:19;98698.57;;;10.03;89.71
80118;BME280;69424;48.770;-1.564;2024-02-26T01:10:53;98703.30;;;10.05;89.69
80118;BME280;69424;48.770;-1.564;2024-02-26T01:11:26;98700.63;;;10.06;89.71
80118;BME280;69424;48.770;-1.564;2024-02-26T01:11:59;98699.90;;;10.07;89.75
80118;BME280;69424;48.770;-1.564;2024-02-26T01:12:33;98702.70;;;10.09;89.73
80118;BME280;69424;48.770;-1.564;2024-02-26T01:13:07;98703.56;;;10.09;89.43
80118;BME280;69424;48.770;-1.564;2024-02-26T01:13:40;98705.16;;;10.09;89.50
80118;BME280;69424;48.770;-1.564;2024-02-26T01:14:14;98708.14;;;10.10;89.33
80118;BME280;69424;48.770;-1.564;2024-02-26T01:14:47;98701.61;;;10.10;89.37
80118;BME280;69424;48.770;-1.564;2024-02-26T01:15:20;98706.54;;;10.11;89.43
80118;BME280;69424;48.770;-1.564;2024-02-26T01:15:56;98708.65;;;10.11;89.53
80118;BME280;69424;48.770;-1.564;2024-02-26T01:16:29;98709.73;;;10.10;89.56
80118;BME280;69424;48.770;-1.564;2024-02-26T01:17:03;98713.45;;;10.09;89.39
80118;BME280;69424;48.770;-1.564;2024-02-26T01:17:37;98711.00;;;10.09;89.37
80118;BME280;69424;48.770;-1.564;2024-02-26T01:18:12;98711.56;;;10.07;89.16
80118;BME280;69424;48.770;-1.564;2024-02-26T01:18:45;98711.74;;;10.07;89.20
80118;BME280;69424;48.770;-1.564;2024-02-26T01:19:18;98713.17;;;10.06;89.13
80118;BME280;69424;48.770;-1.564;2024-02-26T01:19:51;98715.11;;;10.05;88.90
80118;BME280;69424;48.770;-1.564;2024-02-26T01:20:26;98714.77;;;10.05;88.80
80118;BME280;69424;48.770;-1.564;2024-02-26T01:21:00;98714.08;;;10.05;88.78
80118;BME280;69424;48.770;-1.564;2024-02-26T01:21:33;98713.38;;;10.04;88.80
80118;BME280;69424;48.770;-1.564;2024-02-26T01:22:06;98713.55;;;10.05;88.97
80118;BME280;69424;48.770;-1.564;2024-02-26T01:22:39;98714.09;;;10.04;88.71
80118;BME280;69424;48.770;-1.564;2024-02-26T01:23:13;98716.03;;;10.05;88.85
80118;BME280;69424;48.770;-1.564;2024-02-26T01:23:46;98715.33;;;10.04;88.92
80118;BME280;69424;48.770;-1.564;2024-02-26T01:24:20;98717.10;;;10.04;88.91
80118;BME280;69424;48.770;-1.564;2024-02-26T01:24:53;98721.13;;;10.05;88.66
80118;BME280;69424;48.770;-1.564;2024-02-26T01:25:26;98721.67;;;10.05;88.43
80118;BME280;69424;48.770;-1.564;2024-02-26T01:26:00;98723.80;;;10.04;88.07
80118;BME280;69424;48.770;-1.564;2024-02-26T01:26:33;98726.11;;;10.04;87.87
80118;BME280;69424;48.770;-1.564;2024-02-26T01:27:07;98724.84;;;10.05;87.95
80118;BME280;69424;48.770;-1.564;2024-02-26T01:27:41;98723.27;;;10.04;87.85
80118;BME280;69424;48.770;-1.564;2024-02-26T01:28:16;98724.52;;;10.04;87.59
80118;BME280;69424;48.770;-1.564;2024-02-26T01:28:49;98722.78;;;10.03;87.49
80118;BME280;69424;48.770;-1.564;2024-02-26T01:29:23;98726.31;;;10.03;87.25
80118;BME280;69424;48.770;-1.564;2024-02-26T01:29:56;98727.23;;;10.01;86.99
80118;BME280;69424;48.770;-1.564;2024-02-26T01:30:29;98729.20;;;10.00;86.90
80118;BME280;69424;48.770;-1.564;2024-02-26T01:31:02;98728.54;;;9.98;86.72
80118;BME280;69424;48.770;-1.564;2024-02-26T01:31:38;98730.70;;;9.96;86.80
80118;BME280;69424;48.770;-1.564;2024-02-26T01:32:11;98729.33;;;9.94;86.74
80118;BME280;69424;48.770;-1.564;2024-02-26T01:32:44;98734.29;;;9.93;86.96
80118;BME280;69424;48.770;-1.564;2024-02-26T01:33:18;98735.02;;;9.92;87.30
80118;BME280;69424;48.770;-1.564;2024-02-26T01:33:51;98730.24;;;9.92;87.63
80118;BME280;69424;48.770;-1.564;2024-02-26T01:34:26;98731.84;;;9.91;87.91
80118;BME280;69424;48.770;-1.564;2024-02-26T01:34:59;98736.42;;;9.91;88.16
80118;BME280;69424;48.770;-1.564;2024-02-26T01:35:33;98737.84;;;9.91;88.16
80118;BME280;69424;48.770;-1.564;2024-02-26T01:36:06;98742.09;;;9.91;88.27
80118;BME280;69424;48.770;-1.564;2024-02-26T01:36:39;98738.92;;;9.90;88.10
80118;BME280;69424;48.770;-1.564;2024-02-26T01:37:12;98741.06;;;9.89;87.96
80118;BME280;69424;48.770;-1.564;2024-02-26T01:37:46;98743.89;;;9.89;87.97
80118;BME280;69424;48.770;-1.564;2024-02-26T01:38:19;98742.86;;;9.87;87.73
80118;BME280;69424;48.770;-1.564;2024-02-26T01:38:52;98743.60;;;9.86;87.57
80118;BME280;69424;48.770;-1.564;2024-02-26T01:39:25;98747.33;;;9.85;87.85
80118;BME280;69424;48.770;-1.564;2024-02-26T01:40:00;98747.00;;;9.84;87.82
80118;BME280;69424;48.770;-1.564;2024-02-26T01:40:36;98743.14;;;9.83;87.85
80118;BME280;69424;48.770;-1.564;2024-02-26T01:41:09;98746.70;;;9.81;87.90
80118;BME280;69424;48.770;-1.564;2024-02-26T01:41:43;98746.73;;;9.80;88.10
80118;BME280;69424;48.770;-1.564;2024-02-26T01:42:16;98747.10;;;9.79;87.77
80118;BME280;69424;48.770;-1.564;2024-02-26T01:42:52;98746.58;;;9.78;88.09
80118;BME280;69424;48.770;-1.564;2024-02-26T01:43:25;98751.52;;;9.78;88.23
80118;BME280;69424;48.770;-1.564;2024-02-26T01:43:59;98750.50;;;9.77;88.25
80118;BME280;69424;48.770;-1.564;2024-02-26T01:44:32;98754.72;;;9.77;88.11
80118;BME280;69424;48.770;-1.564;2024-02-26T01:45:05;98755.42;;;9.78;88.13
80118;BME280;69424;48.770;-1.564;2024-02-26T01:45:40;98758.77;;;9.78;88.07
80118;BME280;69424;48.770;-1.564;2024-02-26T01:46:14;98758.59;;;9.78;88.07
80118;BME280;69424;48.770;-1.564;2024-02-26T01:46:47;98756.98;;;9.79;87.85
80118;BME280;69424;48.770;-1.564;2024-02-26T01:47:21;98760.36;;;9.78;87.78
80118;BME280;69424;48.770;-1.564;2024-02-26T01:47:55;98758.60;;;9.77;87.91
80118;BME280;69424;48.770;-1.564;2024-02-26T01:48:29;98761.94;;;9.78;87.86
80118;BME280;69424;48.770;-1.564;2024-02-26T01:49:02;98762.12;;;9.79;88.10
80118;BME280;69424;48.770;-1.564;2024-02-26T01:49:36;98760.71;;;9.78;87.94
80118;BME280;69424;48.770;-1.564;2024-02-26T01:50:09;98764.59;;;9.78;87.76
80118;BME280;69424;48.770;-1.564;2024-02-26T01:50:42;98763.74;;;9.77;87.86
80118;BME280;69424;48.770;-1.564;2024-02-26T01:51:16;98767.48;;;9.75;87.79
80118;BME280;69424;48.770;-1.564;2024-02-26T01:51:50;98770.70;;;9.72;87.81
80118;BME280;69424;48.770;-1.564;2024-02-26T01:52:24;98773.05;;;9.70;87.76
80118;BME280;69424;48.770;-1.564;2024-02-26T01:52:57;98771.51;;;9.67;87.83
80118;BME280;69424;48.770;-1.564;2024-02-26T01:53:31;98768.02;;;9.65;87.73
80118;BME280;69424;48.770;-1.564;2024-02-26T01:54:04;98772.10;;;9.64;88.05
80118;BME280;69424;48.770;-1.564;2024-02-26T01:54:38;98774.80;;;9.62;88.27
80118;BME280;69424;48.770;-1.564;2024-02-26T01:55:14;98774.29;;;9.60;88.24
80118;BME280;69424;48.770;-1.564;2024-02-26T01:55:47;98775.73;;;9.58;88.35
80118;BME280;69424;48.770;-1.564;2024-02-26T01:56:21;98779.85;;;9.55;88.34
80118;BME280;69424;48.770;-1.564;2024-02-26T01:56:55;98774.95;;;9.52;88.26
80118;BME280;69424;48.770;-1.564;2024-02-26T01:57:29;98774.98;;;9.51;88.11
80118;BME280;69424;48.770;-1.564;2024-02-26T01:58:03;98779.06;;;9.49;88.34
80118;BME280;69424;48.770;-1.564;2024-02-26T01:58:36;98781.38;;;9.49;88.45
80118;BME280;69424;48.770;-1.564;2024-02-26T01:59:10;98778.04;;;9.47;88.50
80118;BME280;69424;48.770;-1.564;2024-02-26T01:59:43;98780.52;;;9.47;88.60
80118;BME280;69424;48.770;-1.564;2024-02-26T02:02:06;98783.52;;;9.47;89.28
80118;BME280;69424;48.770;-1.564;2024-02-26T02:02:40;98786.17;;;9.47;89.48
80118;BME280;69424;48.770;-1.564;2024-02-26T02:03:15;98783.39;;;9.45;89.24
80118;BME280;69424;48.770;-1.564;2024-02-26T02:03:49;98783.95;;;9.44;89.14
80118;BME280;69424;48.770;-1.564;2024-02-26T02:04:23;98783.25;;;9.42;88.87
80118;BME280;69424;48.770;-1.564;2024-02-26T02:04:57;98781.52;;;9.41;88.86
80118;BME280;69424;48.770;-1.564;2024-02-26T02:05:30;98784.70;;;9.40;88.87
80118;BME280;69424;48.770;-1.564;2024-02-26T02:06:04;98784.38;;;9.38;88.94
80118;BME280;69424;48.770;-1.564;2024-02-26T02:06:38;98787.58;;;9.37;89.28
80118;BME280;69424;48.770;-1.564;2024-02-26T02:07:12;98784.40;;;9.36;89.13
80118;BME280;69424;48.770;-1.564;2024-02-26T02:07:46;98789.70;;;9.37;89.56
80118;BME280;69424;48.770;-1.564;2024-02-26T02:08:22;98791.48;;;9.36;89.31
80118;BME280;69424;48.770;-1.564;2024-02-26T02:08:56;98792.55;;;9.35;89.18
80118;BME280;69424;48.770;-1.564;2024-02-26T02:09:29;98792.20;;;9.34;89.16
80118;BME280;69424;48.770;-1.564;2024-02-26T02:10:03;98793.46;;;9.34;89.20
80118;BME280;69424;48.770;-1.564;2024-02-26T02:10:38;98793.80;;;9.34;89.38
80118;BME280;69424;48.770;-1.564;2024-02-26T02:11:11;98794.70;;;9.34;89.40
80118;BME280;69424;48.770;-1.564;2024-02-26T02:11:46;98797.33;;;9.34;89.70
80118;BME280;69424;48.770;-1.564;2024-02-26T02:12:21;98798.92;;;9.34;89.88
80118;BME280;69424;48.770;-1.564;2024-02-26T02:12:55;98797.50;;;9.34;89.74
80118;BME280;69424;48.770;-1.564;2024-02-26T02:13:28;98797.33;;;9.34;90.14
80118;BME280;69424;48.770;-1.564;2024-02-26T02:14:01;98800.86;;;9.34;90.30
80118;BME280;69424;48.770;-1.564;2024-02-26T02:14:34;98796.98;;;9.33;90.17
80118;BME280;69424;48.770;-1.564;2024-02-26T02:15:07;98799.66;;;9.32;90.25
80118;BME280;69424;48.770;-1.564;2024-02-26T02:15:41;98801.45;;;9.31;90.22
80118;BME280;69424;48.770;-1.564;2024-02-26T02:16:14;98802.15;;;9.30;90.47
80118;BME280;69424;48.770;-1.564;2024-02-26T02:16:47;98804.11;;;9.30;90.36
80118;BME280;69424;48.770;-1.564;2024-02-26T02:17:21;98803.02;;;9.30;90.44
80118;BME280;69424;48.770;-1.564;2024-02-26T02:17:54;98800.21;;;9.30;90.43
80118;BME280;69424;48.770;-1.564;2024-02-26T02:18:27;98806.21;;;9.30;90.14
80118;BME280;69424;48.770;-1.564;2024-02-26T02:19:01;98806.20;;;9.31;90.06
80118;BME280;69424;48.770;-1.564;2024-02-26T02:19:34;98802.51;;;9.31;89.98
80118;BME280;69424;48.770;-1.564;2024-02-26T02:20:09;98804.27;;;9.31;89.70
80118;BME280;69424;48.770;-1.564;2024-02-26T02:20:42;98807.27;;;9.30;89.58
80118;BME280;69424;48.770;-1.564;2024-02-26T02:21:15;98805.52;;;9.30;89.50
80118;BME280;69424;48.770;-1.564;2024-02-26T02:21:48;98808.52;;;9.29;89.50
80118;BME280;69424;48.770;-1.564;2024-02-26T02:22:22;98811.02;;;9.28;89.45
80118;BME280;69424;48.770;-1.564;2024-02-26T02:22:55;98811.75;;;9.27;89.39
80118;BME280;69424;48.770;-1.564;2024-02-26T02:23:28;98813.70;;;9.26;89.61
80118;BME280;69424;48.770;-1.564;2024-02-26T02:24:01;98808.95;;;9.25;89.40
80118;BME280;69424;48.770;-1.564;2024-02-26T02:24:34;98811.27;;;9.24;89.55
80118;BME280;69424;48.770;-1.564;2024-02-26T02:25:08;98809.69;;;9.23;89.64
80118;BME280;69424;48.770;-1.564;2024-02-26T02:25:41;98811.98;;;9.23;89.78
80118;BME280;69424;48.770;-1.564;2024-02-26T02:26:14;98811.64;;;9.23;90.04
80118;BME280;69424;48.770;-1.564;2024-02-26T02:26:48;98813.04;;;9.22;89.93
80118;BME280;69424;48.770;-1.564;2024-02-26T02:27:21;98815.15;;;9.23;89.93
80118;BME280;69424;48.770;-1.564;2024-02-26T02:27:55;98817.08;;;9.24;90.09
80118;BME280;69424;48.770;-1.564;2024-02-26T02:28:28;98819.73;;;9.24;89.68
80118;BME280;69424;48.770;-1.564;2024-02-26T02:29:02;98814.79;;;9.24;89.77
80118;BME280;69424;48.770;-1.564;2024-02-26T02:29:36;98815.86;;;9.23;89.63
80118;BME280;69424;48.770;-1.564;2024-02-26T02:30:10;98821.16;;;9.22;89.49
80118;BME280;69424;48.770;-1.564;2024-02-26T02:30:44;98820.13;;;9.21;89.50
80118;BME280;69424;48.770;-1.564;2024-02-26T02:31:17;98819.64;;;9.18;89.50
80118;BME280;69424;48.770;-1.564;2024-02-26T02:31:50;98814.90;;;9.17;89.30
80118;BME280;69424;48.770;-1.564;2024-02-26T02:32:25;98819.16;;;9.15;89.12
80118;BME280;69424;48.770;-1.564;2024-02-26T02:32:58;98820.77;;;9.13;89.06
80118;BME280;69424;48.770;-1.564;2024-02-26T02:33:32;98819.22;;;9.11;89.30
80118;BME280;69424;48.770;-1.564;2024-02-26T02:34:08;98820.30;;;9.09;89.45
80118;BME280;69424;48.770;-1.564;2024-02-26T02:34:42;98825.10;;;9.08;89.60
80118;BME280;69424;48.770;-1.564;2024-02-26T02:35:15;98821.79;;;9.05;89.46
80118;BME280;69424;48.770;-1.564;2024-02-26T02:35:49;98823.40;;;9.03;89.34
80118;BME280;69424;48.770;-1.564;2024-02-26T02:36:25;98825.02;;;9.01;89.50
80118;BME280;69424;48.770;-1.564;2024-02-26T02:36:58;98825.58;;;8.99;89.63
80118;BME280;69424;48.770;-1.564;2024-02-26T02:37:32;98826.48;;;8.98;89.66
80118;BME280;69424;48.770;-1.564;2024-02-26T02:38:05;98827.70;;;8.98;89.65
80118;BME280;69424;48.770;-1.564;2024-02-26T02:38:38;98828.62;;;8.96;90.00
80118;BME280;69424;48.770;-1.564;2024-02-26T02:39:11;98829.17;;;8.94;90.00
80118;BME280;69424;48.770;-1.564;2024-02-26T02:39:44;98826.90;;;8.93;90.26
80118;BME280;69424;48.770;-1.564;2024-02-26T02:40:17;98832.73;;;8.93;90.24
80118;BME280;69424;48.770;-1.564;2024-02-26T02:40:51;98832.04;;;8.91;90.12
80118;BME280;69424;48.770;-1.564;2024-02-26T02:41:25;98831.02;;;8.90;90.12
80118;BME280;69424;48.770;-1.564;2024-02-26T02:41:59;98831.38;;;8.89;90.11
80118;BME280;69424;48.770;-1.564;2024-02-26T02:42:32;98834.91;;;8.87;90.27
80118;BME280;69424;48.770;-1.564;2024-02-26T02:43:06;98831.39;;;8.88;90.36
80118;BME280;69424;48.770;-1.564;2024-02-26T02:43:39;98827.88;;;8.87;90.32
80118;BME280;69424;48.770;-1.564;2024-02-26T02:44:15;98829.29;;;8.87;90.27
80118;BME280;69424;48.770;-1.564;2024-02-26T02:44:48;98831.23;;;8.87;90.48
80118;BME280;69424;48.770;-1.564;2024-02-26T02:45:21;98831.41;;;8.87;90.57
80118;BME280;69424;48.770;-1.564;2024-02-26T02:45:54;98833.01;;;8.86;90.46
80118;BME280;69424;48.770;-1.564;2024-02-26T02:46:27;98837.06;;;8.86;90.33
80118;BME280;69424;48.770;-1.564;2024-02-26T02:47:00;98837.42;;;8.85;90.53
80118;BME280;69424;48.770;-1.564;2024-02-26T02:47:36;98833.73;;;8.84;90.70
80118;BME280;69424;48.770;-1.564;2024-02-26T02:48:11;98832.50;;;8.84;90.62
80118;BME280;69424;48.770;-1.564;2024-02-26T02:48:44;98837.45;;;8.84;90.90
80118;BME280;69424;48.770;-1.564;2024-02-26T02:49:18;98836.02;;;8.84;90.73
80118;BME280;69424;48.770;-1.564;2024-02-26T02:49:52;98842.56;;;8.83;91.18
80118;BME280;69424;48.770;-1.564;2024-02-26T02:50:25;98837.27;;;8.83;90.81
80118;BME280;69424;48.770;-1.564;2024-02-26T02:50:58;98836.77;;;8.81;90.87
80118;BME280;69424;48.770;-1.564;2024-02-26T02:51:31;98836.08;;;8.80;90.88
80118;BME280;69424;48.770;-1.564;2024-02-26T02:52:05;98837.50;;;8.79;90.91
80118;BME280;69424;48.770;-1.564;2024-02-26T02:52:38;98838.39;;;8.79;91.35
80118;BME280;69424;48.770;-1.564;2024-02-26T02:53:11;98842.43;;;8.79;91.07
80118;BME280;69424;48.770;-1.564;2024-02-26T02:53:44;98841.58;;;8.78;91.33
80118;BME280;69424;48.770;-1.564;2024-02-26T02:54:17;98839.64;;;8.78;91.12
80118;BME280;69424;48.770;-1.564;2024-02-26T02:54:51;98838.23;;;8.77;91.49
80118;BME280;69424;48.770;-1.564;2024-02-26T02:55:24;98839.85;;;8.76;91.55
80118;BME280;69424;48.770;-1.564;2024-02-26T02:55:57;98838.79;;;8.75;91.17
80118;BME280;69424;48.770;-1.564;2024-02-26T02:56:30;98840.75;;;8.74;91.49
80118;BME280;69424;48.770;-1.564;2024-02-26T02:57:04;98842.52;;;8.73;91.40
80118;BME280;69424;48.770;-1.564;2024-02-26T02:57:37;98844.46;;;8.73;91.52
80118;BME280;69424;48.770;-1.564;2024-02-26T02:58:14;98841.48;;;8.72;91.36
80118;BME280;69424;48.770;-1.564;2024-02-26T02:58:47;98846.39;;;8.73;91.60
80118;BME280;69424;48.770;-1.564;2024-02-26T02:59:20;98844.46;;;8.73;91.85
80118;BME280;69424;48.770;-1.564;2024-02-26T02:59:53;98844.64;;;8.73;91.71
80118;BME280;69424;48.770;-1.564;2024-02-26T03:00:27;98848.52;;;8.73;91.73